createdAt,value
2018-02-27T00:04:05.355Z,101848.22
2018-02-27T00:08:59.663Z,101845.91
2018-02-27T00:13:53.964Z,101833.42
2018-02-27T00:18:48.437Z,101830.02
2018-02-27T00:23:42.852Z,101833.45
2018-02-27T00:28:37.345Z,101835.27
2018-02-27T00:33:31.635Z,101841.23
2018-02-27T00:38:26.032Z,101845.59
2018-02-27T00:43:20.342Z,101852.88
2018-02-27T00:48:14.643Z,101854.37
2018-02-27T00:53:09.147Z,101852.12
2018-02-27T00:58:03.454Z,101849.65
2018-02-27T01:02:57.733Z,101860.46
2018-02-27T01:07:52.312Z,101859.55
2018-02-27T01:12:47.605Z,101861.98
2018-02-27T01:17:42.255Z,101860.08
2018-02-27T01:22:37.850Z,101872.00
2018-02-27T01:27:32.140Z,101861.57
2018-02-27T01:32:26.433Z,101872.66
2018-02-27T01:37:20.986Z,101867.03
2018-02-27T01:42:16.139Z,101871.97
2018-02-27T01:47:10.388Z,101862.84
2018-02-27T01:52:04.845Z,101865.30
2018-02-27T01:56:59.246Z,101854.77
2018-02-27T02:01:53.586Z,101864.88
2018-02-27T02:06:48.030Z,101849.25
2018-02-27T02:11:42.335Z,101850.30
2018-02-27T02:16:36.627Z,101847.59
2018-02-27T02:21:31.674Z,101844.73
2018-02-27T02:26:26.109Z,101840.37
2018-02-27T02:31:20.903Z,101843.27
2018-02-27T02:36:15.203Z,101833.72
2018-02-27T02:41:09.511Z,101841.32
2018-02-27T02:46:03.811Z,101842.91
2018-02-27T02:50:58.851Z,101842.02
2018-02-27T02:55:54.040Z,101843.65
2018-02-27T03:00:48.357Z,101860.67
2018-02-27T03:05:42.728Z,101852.02
2018-02-27T03:10:37.010Z,101851.42
2018-02-27T03:15:31.662Z,101847.04
2018-02-27T03:20:25.964Z,101844.75
2018-02-27T03:25:20.441Z,101849.83
2018-02-27T03:30:14.735Z,101842.88
2018-02-27T03:35:09.112Z,101841.22
2018-02-27T03:40:04.186Z,101850.35
2018-02-27T03:44:58.491Z,101855.47
2018-02-27T03:49:52.783Z,101836.86
2018-02-27T03:54:47.069Z,101839.33
2018-02-27T03:59:41.483Z,101846.06
2018-02-27T04:04:35.773Z,101842.94
2018-02-27T04:09:30.145Z,101846.20
2018-02-27T04:14:25.233Z,101844.27
2018-02-27T04:19:19.683Z,101842.42
2018-02-27T04:24:13.984Z,101838.75
2018-02-27T04:29:08.264Z,101835.26
2018-02-27T04:34:03.319Z,101836.86
2018-02-27T04:38:57.582Z,101837.23
2018-02-27T04:43:52.868Z,101849.86
2018-02-27T04:48:47.266Z,101841.64
2018-02-27T04:53:41.701Z,101848.36
2018-02-27T04:58:36.075Z,101842.33
2018-02-27T05:03:30.359Z,101846.11
2018-02-27T05:08:24.760Z,101842.69
2018-02-27T05:13:19.029Z,101839.94
2018-02-27T05:18:14.073Z,101840.26
2018-02-27T05:23:08.496Z,101838.17
2018-02-27T05:28:03.060Z,101830.89
2018-02-27T05:32:57.497Z,101833.77
2018-02-27T05:37:51.824Z,101833.30
2018-02-27T05:42:46.097Z,101831.61
2018-02-27T05:47:40.375Z,101830.19
2018-02-27T05:52:34.695Z,101829.70
2018-02-27T05:57:29.462Z,101830.11
2018-02-27T06:02:24.510Z,101824.34
2018-02-27T06:07:18.955Z,101826.78
2018-02-27T06:12:13.456Z,101834.55
2018-02-27T06:17:08.065Z,101832.73
2018-02-27T06:22:02.540Z,101834.91
2018-02-27T06:26:57.763Z,101830.55
2018-02-27T06:31:52.078Z,101844.04
2018-02-27T06:36:46.381Z,101842.05
2018-02-27T06:41:40.802Z,101841.28
2018-02-27T06:46:35.105Z,101842.43
2018-02-27T06:51:29.386Z,101845.98
2018-02-27T06:56:24.940Z,101841.92
2018-02-27T07:01:19.243Z,101841.13
2018-02-27T07:06:13.529Z,101848.73
2018-02-27T07:11:08.327Z,101836.86
2018-02-27T07:16:02.942Z,101829.13
2018-02-27T07:20:58.002Z,101827.20
2018-02-27T07:25:53.273Z,101829.39
2018-02-27T07:30:47.588Z,101820.52
2018-02-27T07:35:41.904Z,101814.64
2018-02-27T07:40:36.189Z,101811.99
2018-02-27T07:45:30.777Z,101806.75
2018-02-27T07:50:25.102Z,101802.70
2018-02-27T07:55:20.214Z,101806.19
2018-02-27T08:00:14.971Z,101793.84
2018-02-27T08:05:10.238Z,101787.52
2018-02-27T08:10:04.739Z,101778.03
2018-02-27T08:14:59.209Z,101780.78
2018-02-27T08:19:54.247Z,101773.57
2018-02-27T08:24:48.526Z,101771.28
2018-02-27T08:29:43.611Z,101770.72
2018-02-27T08:34:37.976Z,101763.75
2018-02-27T08:39:32.286Z,101756.85
2018-02-27T08:44:26.586Z,101753.07
2018-02-27T08:49:20.872Z,101758.55
2018-02-27T08:54:15.158Z,101753.55
2018-02-27T08:59:09.568Z,101755.67
2018-02-27T09:04:04.294Z,101739.88
2018-02-27T09:08:58.605Z,101744.80
2018-02-27T09:13:52.881Z,101738.13
2018-02-27T09:18:47.152Z,101728.27
2018-02-27T09:23:43.586Z,101712.88
2018-02-27T09:33:41.804Z,101703.73
2018-02-27T09:38:36.138Z,101704.63
2018-02-27T09:43:30.758Z,101703.01
2018-02-27T09:48:25.811Z,101700.17
2018-02-27T09:53:20.101Z,101694.63
2018-02-27T09:58:14.368Z,101689.61
2018-02-27T10:03:09.416Z,101683.83
2018-02-27T10:08:03.715Z,101689.52
2018-02-27T10:12:58.027Z,101688.17
2018-02-27T10:17:52.323Z,101681.61
2018-02-27T10:22:46.591Z,101679.04
2018-02-27T10:27:41.666Z,101686.78
2018-02-27T10:32:35.951Z,101686.09
2018-02-27T10:37:30.444Z,101684.27
2018-02-27T10:42:24.714Z,101679.06
2018-02-27T10:47:19.116Z,101673.36
2018-02-27T10:52:14.187Z,101666.36
2018-02-27T10:57:08.722Z,101672.70
2018-02-27T11:02:03.625Z,101667.94
2018-02-27T11:06:58.092Z,101655.86
2018-02-27T11:11:52.146Z,101647.27
2018-02-27T11:16:47.206Z,101641.66
2018-02-27T11:21:41.487Z,101637.81
2018-02-27T11:26:36.112Z,101638.66
2018-02-27T11:31:30.641Z,101627.05
2018-02-27T11:36:24.935Z,101614.17
2018-02-27T11:41:19.227Z,101617.21
2018-02-27T11:46:13.631Z,101609.87
2018-02-27T11:51:07.909Z,101607.80
2018-02-27T11:56:02.194Z,101597.41
2018-02-27T12:00:58.095Z,101598.33
2018-02-27T12:05:52.591Z,101589.69
2018-02-27T12:10:46.925Z,101577.98
2018-02-27T12:15:42.004Z,101577.98
2018-02-27T12:20:36.312Z,101570.17
2018-02-27T12:25:30.579Z,101559.76
2018-02-27T12:30:27.523Z,101559.36
2018-02-27T12:35:22.581Z,101546.38
2018-02-27T12:40:16.928Z,101549.41
2018-02-27T12:45:11.978Z,101536.86
2018-02-27T12:50:05.761Z,101533.84
2018-02-27T12:55:00.182Z,101534.25
2018-02-27T12:59:55.530Z,101521.68
2018-02-27T13:04:49.806Z,101516.92
2018-02-27T13:09:44.115Z,101505.19
2018-02-27T13:14:38.430Z,101500.84
2018-02-27T13:19:32.856Z,101499.56
2018-02-27T13:24:27.639Z,101495.17
2018-02-27T13:29:21.931Z,101483.84
2018-02-27T13:34:16.429Z,101485.05
2018-02-27T13:39:10.959Z,101477.25
2018-02-27T13:44:04.988Z,101479.36
2018-02-27T13:49:04.001Z,101471.81
2018-02-27T13:53:54.529Z,101463.13
2018-02-27T13:58:49.887Z,101449.78
2018-02-27T14:03:44.179Z,101453.75
2018-02-27T14:08:38.541Z,101447.30
2018-02-27T14:13:37.153Z,101443.02
2018-02-27T14:18:33.254Z,101439.97
2018-02-27T14:23:28.788Z,101435.55
2018-02-27T14:28:23.472Z,101431.70
2018-02-27T14:33:17.747Z,101422.97
2018-02-27T14:38:12.045Z,101412.69
2018-02-27T14:43:06.370Z,101426.17
2018-02-27T14:48:00.681Z,101420.05
2018-02-27T14:52:56.520Z,101425.66
2018-02-27T14:57:50.895Z,101429.98
2018-02-27T15:02:45.392Z,101417.86
2018-02-27T15:07:39.717Z,101404.42
2018-02-27T15:12:33.991Z,101400.08
2018-02-27T15:17:28.308Z,101393.66
2018-02-27T15:22:22.608Z,101399.80
2018-02-27T15:27:18.047Z,101403.32
2018-02-27T15:32:12.347Z,101407.69
2018-02-27T15:37:06.920Z,101405.12
2018-02-27T15:42:02.070Z,101396.87
2018-02-27T15:46:58.428Z,101399.89
2018-02-27T15:51:52.778Z,101394.25
2018-02-27T15:56:47.903Z,101405.56
2018-02-27T16:01:43.334Z,101398.23
2018-02-27T16:06:38.807Z,101403.84
2018-02-27T16:11:33.121Z,101408.19
2018-02-27T16:16:27.583Z,101412.95
2018-02-27T16:21:23.340Z,101407.34
2018-02-27T16:26:18.005Z,101408.62
2018-02-27T16:31:13.087Z,101412.06
2018-02-27T16:36:07.391Z,101405.58
2018-02-27T16:41:01.683Z,101410.74
2018-02-27T16:45:56.122Z,101410.74
2018-02-27T16:50:51.225Z,101424.99
2018-02-27T16:55:45.691Z,101423.66
2018-02-27T17:00:40.056Z,101425.33
2018-02-27T17:05:35.127Z,101429.63
2018-02-27T17:10:29.726Z,101432.20
2018-02-27T17:15:23.999Z,101433.91
2018-02-27T17:20:19.362Z,101436.91
2018-02-27T17:25:13.928Z,101438.16
2018-02-27T17:30:09.451Z,101440.71
2018-02-27T17:35:04.459Z,101449.31
2018-02-27T17:39:59.859Z,101453.20
2018-02-27T17:44:54.334Z,101451.88
2018-02-27T17:49:48.950Z,101454.86
2018-02-27T17:54:43.503Z,101454.36
2018-02-27T17:59:37.805Z,101451.30
2018-02-27T18:04:32.904Z,101447.80
2018-02-27T18:09:27.194Z,101454.69
2018-02-27T18:14:24.913Z,101449.02
2018-02-27T18:19:20.129Z,101446.81
2018-02-27T18:24:15.547Z,101441.61
2018-02-27T18:29:10.224Z,101446.77
2018-02-27T18:34:06.181Z,101453.64
2018-02-27T18:39:00.846Z,101451.01
2018-02-27T18:43:56.374Z,101453.13
2018-02-27T18:48:51.147Z,101450.95
2018-02-27T18:53:47.462Z,101447.02
2018-02-27T18:58:42.965Z,101447.84
2018-02-27T19:03:38.154Z,101446.52
2018-02-27T19:08:33.527Z,101445.14
2018-02-27T19:13:28.048Z,101447.28
2018-02-27T19:18:22.984Z,101445.97
2018-02-27T19:23:19.248Z,101450.22
2018-02-27T19:28:15.098Z,101448.13
2018-02-27T19:33:11.022Z,101450.26
2018-02-27T19:38:06.465Z,101449.38
2018-02-27T19:43:04.086Z,101452.38
2018-02-27T19:47:58.555Z,101457.92
2018-02-27T19:52:54.430Z,101460.86
2018-02-27T19:57:48.727Z,101463.85
2018-02-27T20:02:43.041Z,101454.73
2018-02-27T20:07:37.364Z,101465.02
2018-02-27T20:12:31.720Z,101461.97
2018-02-27T20:17:26.222Z,101464.94
2018-02-27T20:22:20.371Z,101467.03
2018-02-27T20:27:15.599Z,101471.70
2018-02-27T20:32:16.896Z,101472.14
2018-02-27T20:37:15.778Z,101476.84
2018-02-27T20:42:21.226Z,101477.75
2018-02-27T20:47:22.099Z,101476.87
2018-02-27T20:52:16.399Z,101477.27
2018-02-27T20:57:10.697Z,101479.42
2018-02-27T21:02:04.877Z,101481.94
2018-02-27T21:06:59.174Z,101479.20
2018-02-27T21:11:53.516Z,101484.70
2018-02-27T21:16:47.817Z,101491.66
2018-02-27T21:21:42.188Z,101493.31
2018-02-27T21:26:36.496Z,101495.43
2018-02-27T21:31:31.501Z,101491.14
2018-02-27T21:36:26.217Z,101495.88
2018-02-27T21:41:21.141Z,101504.41
2018-02-27T21:46:15.921Z,101502.66
2018-02-27T21:51:10.313Z,101499.22
2018-02-27T21:56:04.640Z,101506.48
2018-02-27T22:00:59.182Z,101503.48
2018-02-27T22:05:53.266Z,101504.30
2018-02-27T22:10:49.282Z,101504.71
2018-02-27T22:15:46.148Z,101511.54
2018-02-27T22:20:40.533Z,101510.30
2018-02-27T22:25:34.863Z,101511.13
2018-02-27T22:30:30.497Z,101508.47
2018-02-27T22:35:24.885Z,101512.33
2018-02-27T22:40:20.177Z,101510.53
2018-02-27T22:45:16.299Z,101519.05
2018-02-27T22:50:11.446Z,101514.69
2018-02-27T22:55:06.622Z,101513.28
2018-02-27T23:00:01.626Z,101509.75
2018-02-27T23:04:56.717Z,101503.66
2018-02-27T23:09:51.969Z,101510.06
2018-02-27T23:14:46.279Z,101502.66
2018-02-27T23:19:40.901Z,101496.16
2018-02-27T23:24:54.315Z,101508.17
2018-02-27T23:29:52.068Z,101510.65
2018-02-27T23:34:54.267Z,101512.23
2018-02-27T23:39:48.618Z,101514.71
2018-02-27T23:44:42.916Z,101524.02
2018-02-27T23:49:37.252Z,101522.63
2018-02-27T23:54:32.724Z,101521.58
2018-02-27T23:59:27.158Z,101535.72
